sensor_id;sensor_type;location;lat;lon;timestamp;P1;durP1;ratioP1;P2;durP2;ratioP2
75937;SDS011;64615;32.062;34.834;2022-11-15T00:01:31;74.63;;;47.63;;
75937;SDS011;64615;32.062;34.834;2022-11-15T00:04:22;70.78;;;45.83;;
75937;SDS011;64615;32.062;34.834;2022-11-15T00:07:13;67.18;;;46.85;;
75937;SDS011;64615;32.062;34.834;2022-11-15T00:09:39;67.57;;;42.72;;
75937;SDS011;64615;32.062;34.834;2022-11-15T00:12:04;67.05;;;42.92;;
75937;SDS011;64615;32.062;34.834;2022-11-15T00:14:30;64.82;;;42.22;;
75937;SDS011;64615;32.062;34.834;2022-11-15T00:36:09;52.72;;;36.95;;
75937;SDS011;64615;32.062;34.834;2022-11-15T00:38:36;51.35;;;35.88;;
75937;SDS011;64615;32.062;34.834;2022-11-15T00:43:30;47.50;;;33.05;;
75937;SDS011;64615;32.062;34.834;2022-11-15T00:45:56;52.00;;;35.45;;
75937;SDS011;64615;32.062;34.834;2022-11-15T00:48:22;47.45;;;33.08;;
75937;SDS011;64615;32.062;34.834;2022-11-15T00:50:48;49.83;;;33.35;;
75937;SDS011;64615;32.062;34.834;2022-11-15T00:53:15;52.15;;;33.25;;
75937;SDS011;64615;32.062;34.834;2022-11-15T00:55:41;49.72;;;32.00;;
75937;SDS011;64615;32.062;34.834;2022-11-15T00:58:06;42.92;;;30.85;;
75937;SDS011;64615;32.062;34.834;2022-11-15T02:18:24;19.98;;;14.60;;
75937;SDS011;64615;32.062;34.834;2022-11-15T02:33:34;19.38;;;14.48;;
75937;SDS011;64615;32.062;34.834;2022-11-15T03:13:33;19.23;;;13.70;;
75937;SDS011;64615;32.062;34.834;2022-11-15T03:15:39;17.63;;;13.38;;
75937;SDS011;64615;32.062;34.834;2022-11-15T03:18:32;20.13;;;13.15;;
75937;SDS011;64615;32.062;34.834;2022-11-15T03:21:01;18.05;;;13.10;;
75937;SDS011;64615;32.062;34.834;2022-11-15T03:23:32;18.17;;;12.38;;
75937;SDS011;64615;32.062;34.834;2022-11-15T03:26:01;19.38;;;12.82;;
75937;SDS011;64615;32.062;34.834;2022-11-15T03:28:36;18.08;;;12.02;;
75937;SDS011;64615;32.062;34.834;2022-11-15T03:31:07;18.25;;;12.57;;
75937;SDS011;64615;32.062;34.834;2022-11-15T03:33:55;19.70;;;12.13;;
75937;SDS011;64615;32.062;34.834;2022-11-15T03:36:23;19.05;;;13.23;;
75937;SDS011;64615;32.062;34.834;2022-11-15T03:38:52;19.38;;;12.63;;
75937;SDS011;64615;32.062;34.834;2022-11-15T03:41:23;20.00;;;12.90;;
75937;SDS011;64615;32.062;34.834;2022-11-15T03:43:57;20.95;;;12.70;;
75937;SDS011;64615;32.062;34.834;2022-11-15T03:46:33;18.67;;;11.90;;
75937;SDS011;64615;32.062;34.834;2022-11-15T03:49:22;20.98;;;12.65;;
75937;SDS011;64615;32.062;34.834;2022-11-15T03:51:55;19.17;;;11.43;;
75937;SDS011;64615;32.062;34.834;2022-11-15T03:54:22;17.15;;;11.50;;
75937;SDS011;64615;32.062;34.834;2022-11-15T03:56:48;16.25;;;11.90;;
75937;SDS011;64615;32.062;34.834;2022-11-15T03:59:14;19.83;;;12.85;;
75937;SDS011;64615;32.062;34.834;2022-11-15T04:01:39;16.17;;;11.70;;
75937;SDS011;64615;32.062;34.834;2022-11-15T04:04:05;18.52;;;11.57;;
75937;SDS011;64615;32.062;34.834;2022-11-15T05:01:20;23.02;;;12.55;;
75937;SDS011;64615;32.062;34.834;2022-11-15T05:03:45;22.65;;;12.73;;
75937;SDS011;64615;32.062;34.834;2022-11-15T05:06:30;35.15;;;13.57;;
75937;SDS011;64615;32.062;34.834;2022-11-15T05:08:56;30.35;;;14.02;;
75937;SDS011;64615;32.062;34.834;2022-11-15T05:11:22;34.47;;;14.52;;
75937;SDS011;64615;32.062;34.834;2022-11-15T05:13:48;41.90;;;16.55;;
75937;SDS011;64615;32.062;34.834;2022-11-15T06:15:12;36.90;;;17.13;;
75937;SDS011;64615;32.062;34.834;2022-11-15T06:17:37;42.65;;;18.38;;
75937;SDS011;64615;32.062;34.834;2022-11-15T06:20:03;42.53;;;19.58;;
75937;SDS011;64615;32.062;34.834;2022-11-15T06:22:29;41.55;;;19.63;;
75937;SDS011;64615;32.062;34.834;2022-11-15T06:24:54;44.45;;;19.95;;
75937;SDS011;64615;32.062;34.834;2022-11-15T06:27:20;42.90;;;20.00;;
75937;SDS011;64615;32.062;34.834;2022-11-15T06:29:46;31.40;;;18.83;;
75937;SDS011;64615;32.062;34.834;2022-11-15T06:32:11;40.95;;;19.67;;
75937;SDS011;64615;32.062;34.834;2022-11-15T06:34:37;52.05;;;20.52;;
75937;SDS011;64615;32.062;34.834;2022-11-15T06:37:03;50.65;;;21.75;;
75937;SDS011;64615;32.062;34.834;2022-11-15T06:39:28;49.17;;;19.98;;
75937;SDS011;64615;32.062;34.834;2022-11-15T06:41:54;42.83;;;20.02;;
75937;SDS011;64615;32.062;34.834;2022-11-15T06:44:20;38.80;;;20.13;;
75937;SDS011;64615;32.062;34.834;2022-11-15T06:46:45;44.67;;;20.00;;
75937;SDS011;64615;32.062;34.834;2022-11-15T06:49:11;50.47;;;20.20;;
75937;SDS011;64615;32.062;34.834;2022-11-15T06:51:36;45.58;;;19.30;;
75937;SDS011;64615;32.062;34.834;2022-11-15T06:54:02;38.15;;;18.50;;
75937;SDS011;64615;32.062;34.834;2022-11-15T06:56:28;41.58;;;18.55;;
75937;SDS011;64615;32.062;34.834;2022-11-15T06:58:53;40.03;;;19.05;;
75937;SDS011;64615;32.062;34.834;2022-11-15T07:01:21;32.40;;;17.35;;
75937;SDS011;64615;32.062;34.834;2022-11-15T07:03:46;38.45;;;17.48;;
75937;SDS011;64615;32.062;34.834;2022-11-15T07:06:12;37.53;;;16.83;;
75937;SDS011;64615;32.062;34.834;2022-11-15T07:08:38;42.63;;;19.00;;
75937;SDS011;64615;32.062;34.834;2022-11-15T08:10:00;23.27;;;12.85;;
75937;SDS011;64615;32.062;34.834;2022-11-15T08:12:27;33.42;;;13.73;;
75937;SDS011;64615;32.062;34.834;2022-11-15T08:14:54;23.85;;;12.43;;
75937;SDS011;64615;32.062;34.834;2022-11-15T08:17:21;29.25;;;12.90;;
75937;SDS011;64615;32.062;34.834;2022-11-15T08:19:47;24.73;;;13.93;;
75937;SDS011;64615;32.062;34.834;2022-11-15T08:22:13;26.10;;;12.50;;
75937;SDS011;64615;32.062;34.834;2022-11-15T08:24:39;24.55;;;12.43;;
75937;SDS011;64615;32.062;34.834;2022-11-15T09:51:55;17.00;;;11.15;;
75937;SDS011;64615;32.062;34.834;2022-11-15T09:57:11;20.05;;;10.82;;
75937;SDS011;64615;32.062;34.834;2022-11-15T10:04:45;19.85;;;10.65;;
75937;SDS011;64615;32.062;34.834;2022-11-15T10:09:59;17.00;;;9.07;;
75937;SDS011;64615;32.062;34.834;2022-11-15T10:12:33;16.30;;;9.77;;
75937;SDS011;64615;32.062;34.834;2022-11-15T10:15:03;15.82;;;10.80;;
75937;SDS011;64615;32.062;34.834;2022-11-15T10:17:46;21.20;;;11.18;;
75937;SDS011;64615;32.062;34.834;2022-11-15T11:12:04;21.92;;;10.80;;
75937;SDS011;64615;32.062;34.834;2022-11-15T11:15:00;19.42;;;10.85;;
75937;SDS011;64615;32.062;34.834;2022-11-15T11:18:11;15.73;;;10.55;;
75937;SDS011;64615;32.062;34.834;2022-11-15T11:21:20;20.20;;;11.00;;
75937;SDS011;64615;32.062;34.834;2022-11-15T11:55:16;20.73;;;12.00;;
75937;SDS011;64615;32.062;34.834;2022-11-15T14:50:59;14.55;;;8.38;;
75937;SDS011;64615;32.062;34.834;2022-11-15T14:53:50;11.25;;;8.10;;
75937;SDS011;64615;32.062;34.834;2022-11-15T14:56:41;12.77;;;7.60;;
75937;SDS011;64615;32.062;34.834;2022-11-15T14:59:32;12.10;;;8.13;;
75937;SDS011;64615;32.062;34.834;2022-11-15T15:02:24;13.63;;;7.97;;
75937;SDS011;64615;32.062;34.834;2022-11-15T15:05:20;14.63;;;8.15;;
75937;SDS011;64615;32.062;34.834;2022-11-15T15:08:10;14.68;;;8.07;;
75937;SDS011;64615;32.062;34.834;2022-11-15T15:11:03;13.40;;;7.70;;
75937;SDS011;64615;32.062;34.834;2022-11-15T15:14:02;16.23;;;7.55;;
75937;SDS011;64615;32.062;34.834;2022-11-15T15:16:53;19.85;;;8.00;;
75937;SDS011;64615;32.062;34.834;2022-11-15T15:19:44;17.05;;;8.65;;
75937;SDS011;64615;32.062;34.834;2022-11-15T15:22:35;11.93;;;8.07;;
75937;SDS011;64615;32.062;34.834;2022-11-15T15:25:31;11.60;;;7.53;;
75937;SDS011;64615;32.062;34.834;2022-11-15T15:28:23;12.70;;;7.88;;
75937;SDS011;64615;32.062;34.834;2022-11-15T15:31:14;15.82;;;8.10;;
75937;SDS011;64615;32.062;34.834;2022-11-15T15:34:05;19.70;;;8.32;;
75937;SDS011;64615;32.062;34.834;2022-11-15T15:43:33;13.43;;;7.70;;
75937;SDS011;64615;32.062;34.834;2022-11-15T15:45:59;14.23;;;8.63;;
75937;SDS011;64615;32.062;34.834;2022-11-15T15:48:24;18.33;;;9.48;;
75937;SDS011;64615;32.062;34.834;2022-11-15T15:50:50;17.00;;;9.10;;
75937;SDS011;64615;32.062;34.834;2022-11-15T15:53:15;14.00;;;8.35;;
75937;SDS011;64615;32.062;34.834;2022-11-15T15:55:42;19.73;;;8.38;;
75937;SDS011;64615;32.062;34.834;2022-11-15T15:58:07;18.95;;;9.35;;
75937;SDS011;64615;32.062;34.834;2022-11-15T16:00:33;22.02;;;9.05;;
75937;SDS011;64615;32.062;34.834;2022-11-15T16:02:59;27.60;;;9.75;;
75937;SDS011;64615;32.062;34.834;2022-11-15T16:05:24;14.43;;;8.68;;
75937;SDS011;64615;32.062;34.834;2022-11-15T16:07:50;15.02;;;8.52;;
75937;SDS011;64615;32.062;34.834;2022-11-15T16:10:18;17.17;;;8.90;;
75937;SDS011;64615;32.062;34.834;2022-11-15T16:12:46;15.75;;;8.07;;
75937;SDS011;64615;32.062;34.834;2022-11-15T16:15:12;18.63;;;8.45;;
75937;SDS011;64615;32.062;34.834;2022-11-15T16:17:39;15.30;;;9.30;;
75937;SDS011;64615;32.062;34.834;2022-11-15T16:20:15;16.90;;;9.55;;
75937;SDS011;64615;32.062;34.834;2022-11-15T16:22:55;18.92;;;7.85;;
75937;SDS011;64615;32.062;34.834;2022-11-15T16:25:21;17.10;;;8.02;;
75937;SDS011;64615;32.062;34.834;2022-11-15T16:27:47;14.13;;;8.32;;
75937;SDS011;64615;32.062;34.834;2022-11-15T16:30:14;18.60;;;7.93;;
75937;SDS011;64615;32.062;34.834;2022-11-15T16:32:41;11.82;;;7.88;;
75937;SDS011;64615;32.062;34.834;2022-11-15T16:35:09;15.85;;;7.70;;
75937;SDS011;64615;32.062;34.834;2022-11-15T16:37:41;16.33;;;7.82;;
75937;SDS011;64615;32.062;34.834;2022-11-15T16:42:55;17.52;;;7.80;;
75937;SDS011;64615;32.062;34.834;2022-11-15T17:07:25;14.38;;;7.75;;
75937;SDS011;64615;32.062;34.834;2022-11-15T17:10:16;25.45;;;7.93;;
75937;SDS011;64615;32.062;34.834;2022-11-15T17:13:13;13.27;;;7.25;;
75937;SDS011;64615;32.062;34.834;2022-11-15T17:16:05;11.65;;;7.28;;
75937;SDS011;64615;32.062;34.834;2022-11-15T17:19:00;15.18;;;7.28;;
75937;SDS011;64615;32.062;34.834;2022-11-15T17:21:26;12.95;;;6.97;;
75937;SDS011;64615;32.062;34.834;2022-11-15T17:23:53;12.18;;;6.70;;
75937;SDS011;64615;32.062;34.834;2022-11-15T17:26:19;13.70;;;7.15;;
75937;SDS011;64615;32.062;34.834;2022-11-15T17:28:45;13.43;;;6.88;;
75937;SDS011;64615;32.062;34.834;2022-11-15T17:31:11;16.33;;;7.40;;
75937;SDS011;64615;32.062;34.834;2022-11-15T17:33:38;11.55;;;7.18;;
75937;SDS011;64615;32.062;34.834;2022-11-15T17:36:06;11.98;;;7.13;;
75937;SDS011;64615;32.062;34.834;2022-11-15T17:38:35;17.13;;;7.22;;
75937;SDS011;64615;32.062;34.834;2022-11-15T17:41:01;11.57;;;6.85;;
75937;SDS011;64615;32.062;34.834;2022-11-15T17:43:29;13.98;;;6.95;;
75937;SDS011;64615;32.062;34.834;2022-11-15T17:45:56;16.10;;;7.13;;
75937;SDS011;64615;32.062;34.834;2022-11-15T17:48:23;15.00;;;6.78;;
75937;SDS011;64615;32.062;34.834;2022-11-15T17:50:55;15.32;;;7.15;;
75937;SDS011;64615;32.062;34.834;2022-11-15T17:53:22;13.25;;;6.95;;
75937;SDS011;64615;32.062;34.834;2022-11-15T17:55:49;10.95;;;7.03;;
75937;SDS011;64615;32.062;34.834;2022-11-15T17:58:14;10.95;;;6.47;;
75937;SDS011;64615;32.062;34.834;2022-11-15T18:00:44;10.85;;;6.28;;
75937;SDS011;64615;32.062;34.834;2022-11-15T18:03:10;11.77;;;6.68;;
75937;SDS011;64615;32.062;34.834;2022-11-15T18:05:36;10.88;;;6.90;;
75937;SDS011;64615;32.062;34.834;2022-11-15T20:40:39;38.15;;;19.17;;
75937;SDS011;64615;32.062;34.834;2022-11-15T20:43:30;29.85;;;17.45;;
75937;SDS011;64615;32.062;34.834;2022-11-15T20:46:21;32.70;;;18.70;;
75937;SDS011;64615;32.062;34.834;2022-11-15T20:49:12;31.83;;;17.65;;
75937;SDS011;64615;32.062;34.834;2022-11-15T20:52:02;29.42;;;17.15;;
75937;SDS011;64615;32.062;34.834;2022-11-15T20:54:53;30.63;;;18.67;;
75937;SDS011;64615;32.062;34.834;2022-11-15T20:57:44;28.55;;;16.70;;
75937;SDS011;64615;32.062;34.834;2022-11-15T21:00:35;28.35;;;16.88;;
75937;SDS011;64615;32.062;34.834;2022-11-15T21:03:26;28.45;;;16.40;;
75937;SDS011;64615;32.062;34.834;2022-11-15T21:06:17;27.55;;;16.33;;
75937;SDS011;64615;32.062;34.834;2022-11-15T21:09:09;28.77;;;16.48;;
75937;SDS011;64615;32.062;34.834;2022-11-15T21:12:01;24.60;;;15.50;;
75937;SDS011;64615;32.062;34.834;2022-11-15T21:14:52;24.73;;;15.25;;
75937;SDS011;64615;32.062;34.834;2022-11-15T21:17:43;25.20;;;14.88;;
75937;SDS011;64615;32.062;34.834;2022-11-15T21:20:34;24.48;;;14.43;;
75937;SDS011;64615;32.062;34.834;2022-11-15T21:23:25;23.13;;;13.63;;
75937;SDS011;64615;32.062;34.834;2022-11-15T21:26:15;22.50;;;14.35;;
75937;SDS011;64615;32.062;34.834;2022-11-15T21:29:06;24.70;;;13.60;;
75937;SDS011;64615;32.062;34.834;2022-11-15T21:31:57;22.27;;;13.23;;
75937;SDS011;64615;32.062;34.834;2022-11-15T21:34:48;24.08;;;13.65;;
75937;SDS011;64615;32.062;34.834;2022-11-15T21:41:20;21.70;;;12.77;;
75937;SDS011;64615;32.062;34.834;2022-11-15T21:43:46;20.63;;;12.25;;
75937;SDS011;64615;32.062;34.834;2022-11-15T21:46:11;20.85;;;12.95;;
75937;SDS011;64615;32.062;34.834;2022-11-15T21:48:37;21.42;;;11.70;;
75937;SDS011;64615;32.062;34.834;2022-11-15T21:51:04;21.13;;;12.50;;
75937;SDS011;64615;32.062;34.834;2022-11-15T21:53:31;19.73;;;12.10;;
75937;SDS011;64615;32.062;34.834;2022-11-15T21:55:58;19.65;;;12.40;;
75937;SDS011;64615;32.062;34.834;2022-11-15T21:58:24;19.58;;;12.32;;
75937;SDS011;64615;32.062;34.834;2022-11-15T22:00:50;20.58;;;11.13;;
75937;SDS011;64615;32.062;34.834;2022-11-15T22:03:34;19.05;;;12.18;;
75937;SDS011;64615;32.062;34.834;2022-11-15T22:06:00;17.95;;;11.43;;
75937;SDS011;64615;32.062;34.834;2022-11-15T22:08:26;19.95;;;11.60;;
75937;SDS011;64615;32.062;34.834;2022-11-15T22:10:52;19.50;;;11.48;;
75937;SDS011;64615;32.062;34.834;2022-11-15T22:13:18;19.50;;;10.70;;
75937;SDS011;64615;32.062;34.834;2022-11-15T22:15:45;19.55;;;10.57;;
75937;SDS011;64615;32.062;34.834;2022-11-15T22:59:07;13.88;;;9.23;;
75937;SDS011;64615;32.062;34.834;2022-11-15T23:01:33;15.43;;;9.45;;
75937;SDS011;64615;32.062;34.834;2022-11-15T23:03:59;15.88;;;9.80;;
75937;SDS011;64615;32.062;34.834;2022-11-15T23:06:24;15.52;;;10.05;;
75937;SDS011;64615;32.062;34.834;2022-11-15T23:08:50;14.65;;;9.15;;
75937;SDS011;64615;32.062;34.834;2022-11-15T23:11:16;15.88;;;9.07;;
75937;SDS011;64615;32.062;34.834;2022-11-15T23:14:00;13.50;;;8.55;;
75937;SDS011;64615;32.062;34.834;2022-11-15T23:16:25;15.82;;;8.70;;
75937;SDS011;64615;32.062;34.834;2022-11-15T23:19:00;13.55;;;8.75;;
75937;SDS011;64615;32.062;34.834;2022-11-15T23:21:29;14.00;;;9.07;;
75937;SDS011;64615;32.062;34.834;2022-11-15T23:24:18;16.48;;;8.93;;
75937;SDS011;64615;32.062;34.834;2022-11-15T23:26:45;13.88;;;8.27;;
75937;SDS011;64615;32.062;34.834;2022-11-15T23:29:12;15.00;;;9.15;;
75937;SDS011;64615;32.062;34.834;2022-11-15T23:31:39;12.10;;;8.10;;
75937;SDS011;64615;32.062;34.834;2022-11-15T23:34:23;13.65;;;8.10;;
75937;SDS011;64615;32.062;34.834;2022-11-15T23:36:49;16.05;;;8.50;;
75937;SDS011;64615;32.062;34.834;2022-11-15T23:39:14;14.23;;;8.10;;
75937;SDS011;64615;32.062;34.834;2022-11-15T23:41:40;13.52;;;8.35;;
